Sea Amore — H9OC — position and weather

sailwx.info

Track history (hours):
 
Tides and Currents Weather Stations Pressure Air Temp Water Temp Dewpoint Dewpoint Depression Visibility Wind Speed Wind Dir Waves Ship Positions

Sea Amore

Last reported at 2014-Dec-19 13:30 UTC. Time now 2014-Dec-20 03:03 UTC.
Position N 46°36' E 032°31'.

Length 148 m; draft 5.3 m.

Type: Cargo ship. MMSI: 357019000.

Date/timePositionNaut miles runAvg speedWind from/ knotsBaromVisibWave heightAir tempDewpointWater temp
2014-Dec-19 13:30N 46°36' E 032°31'1010.0
2014-Dec-19 12:32N 46°33' E 032°17'1212.0
2014-Dec-19 11:34N 46°33' E 032°00'1212.5
2014-Dec-19 10:34N 46°36' E 031°43'1212.4
2014-Dec-19 09:33N 46°35' E 031°25'1413.9
2014-Dec-19 08:32N 46°34' E 031°04'7 6.8
2014-Dec-19 07:32N 46°29' E 030°57'32112.8
2014-Dec-18 06:33N 41°18' E 029°13'2311.0
2014-Dec-18 04:30N 40°57' E 028°59'9 8.8
2014-Dec-18 03:32N 40°50' E 028°53'1212.2
2014-Dec-18 02:33N 40°40' E 028°46'1 1.4
2014-Dec-18 01:33N 40°39' E 028°45'1 0.6
2014-Dec-18 00:34N 40°38' E 028°45'0 0.4
2014-Dec-17 23:33N 40°38' E 028°45'1 0.7
2014-Dec-17 22:30N 40°38' E 028°46'1 0.9
2014-Dec-17 21:33N 40°39' E 028°47'1 1.1
2014-Dec-17 20:33N 40°40' E 028°47'1 1.2
2014-Dec-17 19:33N 40°41' E 028°47'2 1.6
2014-Dec-17 18:32N 40°43' E 028°47'1 1.2
2014-Dec-17 17:33N 40°44' E 028°48'1 1.5
2014-Dec-17 16:33N 40°46' E 028°48'1 1.1
2014-Dec-17 15:32N 40°47' E 028°48'1 1.1
2014-Dec-17 14:29N 40°48' E 028°47'1 1.1
2014-Dec-17 13:32N 40°48' E 028°46'1 1.3
2014-Dec-17 12:32N 40°48' E 028°45'1 1.3
2014-Dec-17 11:32N 40°48' E 028°43'1 1.5
2014-Dec-17 10:33N 40°47' E 028°41'2 1.7
2014-Dec-17 09:32N 40°46' E 028°40'4 3.8
2014-Dec-17 08:31N 40°48' E 028°36'8213.2
2014-Dec-17 02:18N 40°28' E 026°51'2812.5
2014-Dec-17 00:04N 40°09' E 026°24'2412.4
2014-Dec-16 22:08N 39°56' E 025°57'11913.9
2014-Dec-16 13:33N 37°57' E 025°49'1414.3
2014-Dec-16 12:33N 37°43' E 025°53'1413.9
2014-Dec-16 11:33N 37°29' E 025°56'1414.3
2014-Dec-16 10:33N 37°20' E 026°10'1413.7
2014-Dec-16 09:33N 37°11' E 026°22'1413.6
2014-Dec-16 08:33N 37°01' E 026°35'1413.9
2014-Dec-16 07:33N 36°50' E 026°45'1413.5
2014-Dec-16 06:32N 36°38' E 026°54'  
Track history (hours):
 
Tides and Currents Weather Stations Pressure Air Temp Water Temp Dewpoint Dewpoint Depression Visibility Wind Speed Wind Dir Waves Ship Positions

Sea Amore

Last reported at 2014-Dec-19 13:30 UTC. Time now 2014-Dec-20 03:03 UTC.
Position N 46°36' E 032°31'.

Length 148 m; draft 5.3 m.

Type: Cargo ship. MMSI: 357019000.

Date/timePositionNaut miles runAvg speedWind from/ knotsBaromVisibWave heightAir tempDewpointWater temp
2014-Dec-19 13:30N 46°36' E 032°31'1010.0
2014-Dec-19 12:32N 46°33' E 032°17'1212.0
2014-Dec-19 11:34N 46°33' E 032°00'1212.5
2014-Dec-19 10:34N 46°36' E 031°43'1212.4
2014-Dec-19 09:33N 46°35' E 031°25'1413.9
2014-Dec-19 08:32N 46°34' E 031°04'7 6.8
2014-Dec-19 07:32N 46°29' E 030°57'32112.8
2014-Dec-18 06:33N 41°18' E 029°13'2311.0
2014-Dec-18 04:30N 40°57' E 028°59'9 8.8
2014-Dec-18 03:32N 40°50' E 028°53'1212.2
2014-Dec-18 02:33N 40°40' E 028°46'1 1.4
2014-Dec-18 01:33N 40°39' E 028°45'1 0.6
2014-Dec-18 00:34N 40°38' E 028°45'0 0.4
2014-Dec-17 23:33N 40°38' E 028°45'1 0.7
2014-Dec-17 22:30N 40°38' E 028°46'1 0.9
2014-Dec-17 21:33N 40°39' E 028°47'1 1.1
2014-Dec-17 20:33N 40°40' E 028°47'1 1.2
2014-Dec-17 19:33N 40°41' E 028°47'2 1.6
2014-Dec-17 18:32N 40°43' E 028°47'1 1.2
2014-Dec-17 17:33N 40°44' E 028°48'1 1.5
2014-Dec-17 16:33N 40°46' E 028°48'1 1.1
2014-Dec-17 15:32N 40°47' E 028°48'1 1.1
2014-Dec-17 14:29N 40°48' E 028°47'1 1.1
2014-Dec-17 13:32N 40°48' E 028°46'1 1.3
2014-Dec-17 12:32N 40°48' E 028°45'1 1.3
2014-Dec-17 11:32N 40°48' E 028°43'1 1.5
2014-Dec-17 10:33N 40°47' E 028°41'2 1.7
2014-Dec-17 09:32N 40°46' E 028°40'4 3.8
2014-Dec-17 08:31N 40°48' E 028°36'8213.2
2014-Dec-17 02:18N 40°28' E 026°51'2812.5
2014-Dec-17 00:04N 40°09' E 026°24'2412.4
2014-Dec-16 22:08N 39°56' E 025°57'11913.9
2014-Dec-16 13:33N 37°57' E 025°49'1414.3
2014-Dec-16 12:33N 37°43' E 025°53'1413.9
2014-Dec-16 11:33N 37°29' E 025°56'1414.3
2014-Dec-16 10:33N 37°20' E 026°10'1413.7
2014-Dec-16 09:33N 37°11' E 026°22'1413.6
2014-Dec-16 08:33N 37°01' E 026°35'1413.9
2014-Dec-16 07:33N 36°50' E 026°45'1413.5
2014-Dec-16 06:32N 36°38' E 026°54'  

Dump ship's entire track history